sensor_id;sensor_type;location;lat;lon;timestamp;temperature;humidity
21302;DHT22;10810;48.270;9.996;2023-07-02T00:01:49;17.70;99.90
21302;DHT22;10810;48.270;9.996;2023-07-02T00:09:14;17.60;99.90
21302;DHT22;10810;48.270;9.996;2023-07-02T00:11:43;17.50;99.90
21302;DHT22;10810;48.270;9.996;2023-07-02T00:14:12;17.50;99.90
21302;DHT22;10810;48.270;9.996;2023-07-02T00:16:42;17.50;99.90
21302;DHT22;10810;48.270;9.996;2023-07-02T00:24:04;17.40;99.90
21302;DHT22;10810;48.270;9.996;2023-07-02T00:26:33;17.40;99.90
21302;DHT22;10810;48.270;9.996;2023-07-02T00:33:56;17.20;99.90
21302;DHT22;10810;48.270;9.996;2023-07-02T00:38:50;17.20;99.90
21302;DHT22;10810;48.270;9.996;2023-07-02T00:41:18;17.20;99.90
21302;DHT22;10810;48.270;9.996;2023-07-02T00:43:46;17.20;99.90
21302;DHT22;10810;48.270;9.996;2023-07-02T00:46:14;17.20;99.90
21302;DHT22;10810;48.270;9.996;2023-07-02T00:48:43;17.20;99.90
21302;DHT22;10810;48.270;9.996;2023-07-02T00:51:12;17.20;99.90
21302;DHT22;10810;48.270;9.996;2023-07-02T00:58:38;17.10;99.90
21302;DHT22;10810;48.270;9.996;2023-07-02T01:01:07;17.10;99.90
21302;DHT22;10810;48.270;9.996;2023-07-02T01:03:35;17.20;99.90
21302;DHT22;10810;48.270;9.996;2023-07-02T01:10:59;17.30;99.90
21302;DHT22;10810;48.270;9.996;2023-07-02T01:13:27;17.40;99.90
21302;DHT22;10810;48.270;9.996;2023-07-02T01:15:54;17.40;99.90
21302;DHT22;10810;48.270;9.996;2023-07-02T01:18:23;17.40;99.90
21302;DHT22;10810;48.270;9.996;2023-07-02T01:20:52;17.40;99.90
21302;DHT22;10810;48.270;9.996;2023-07-02T01:23:20;17.40;99.90
21302;DHT22;10810;48.270;9.996;2023-07-02T01:33:11;17.00;99.90
21302;DHT22;10810;48.270;9.996;2023-07-02T01:35:38;16.80;99.90
21302;DHT22;10810;48.270;9.996;2023-07-02T01:38:06;16.60;99.90
21302;DHT22;10810;48.270;9.996;2023-07-02T01:55:18;16.30;99.90
21302;DHT22;10810;48.270;9.996;2023-07-02T01:57:45;16.40;99.90
21302;DHT22;10810;48.270;9.996;2023-07-02T02:00:13;16.50;99.90
21302;DHT22;10810;48.270;9.996;2023-07-02T02:02:40;16.60;99.90
21302;DHT22;10810;48.270;9.996;2023-07-02T02:05:07;16.60;99.90
21302;DHT22;10810;48.270;9.996;2023-07-02T02:07:36;16.70;99.90
21302;DHT22;10810;48.270;9.996;2023-07-02T02:10:03;16.70;99.90
21302;DHT22;10810;48.270;9.996;2023-07-02T02:12:31;16.60;99.90
21302;DHT22;10810;48.270;9.996;2023-07-02T02:19:53;16.70;99.90
21302;DHT22;10810;48.270;9.996;2023-07-02T02:29:43;16.60;99.90
21302;DHT22;10810;48.270;9.996;2023-07-02T02:39:31;16.30;99.90
21302;DHT22;10810;48.270;9.996;2023-07-02T02:41:58;16.30;99.90
21302;DHT22;10810;48.270;9.996;2023-07-02T02:44:25;16.30;99.90
21302;DHT22;10810;48.270;9.996;2023-07-02T02:46:54;16.40;99.90
21302;DHT22;10810;48.270;9.996;2023-07-02T02:49:21;16.40;99.90
21302;DHT22;10810;48.270;9.996;2023-07-02T02:51:48;16.50;99.90
21302;DHT22;10810;48.270;9.996;2023-07-02T02:54:15;16.50;99.90
21302;DHT22;10810;48.270;9.996;2023-07-02T02:56:42;16.50;99.90
21302;DHT22;10810;48.270;9.996;2023-07-02T03:01:36;16.30;99.90
21302;DHT22;10810;48.270;9.996;2023-07-02T03:04:05;16.30;99.90
21302;DHT22;10810;48.270;9.996;2023-07-02T03:11:28;16.20;99.90
21302;DHT22;10810;48.270;9.996;2023-07-02T03:13:55;16.30;99.90
21302;DHT22;10810;48.270;9.996;2023-07-02T03:18:49;16.30;99.90
21302;DHT22;10810;48.270;9.996;2023-07-02T03:21:18;16.30;99.90
21302;DHT22;10810;48.270;9.996;2023-07-02T03:23:44;16.20;99.90
21302;DHT22;10810;48.270;9.996;2023-07-02T03:38:29;16.20;99.90
21302;DHT22;10810;48.270;9.996;2023-07-02T03:55:42;16.30;99.90
21302;DHT22;10810;48.270;9.996;2023-07-02T03:58:11;16.30;99.90
21302;DHT22;10810;48.270;9.996;2023-07-02T04:03:07;16.30;99.90
21302;DHT22;10810;48.270;9.996;2023-07-02T04:05:34;16.30;99.90
21302;DHT22;10810;48.270;9.996;2023-07-02T04:08:01;16.30;99.90
21302;DHT22;10810;48.270;9.996;2023-07-02T04:12:57;16.40;99.90
21302;DHT22;10810;48.270;9.996;2023-07-02T04:15:23;16.40;99.90
21302;DHT22;10810;48.270;9.996;2023-07-02T04:25:15;16.50;99.90
21302;DHT22;10810;48.270;9.996;2023-07-02T04:27:42;16.50;99.90
21302;DHT22;10810;48.270;9.996;2023-07-02T04:30:11;16.50;99.90
21302;DHT22;10810;48.270;9.996;2023-07-02T04:32:39;16.50;99.90
21302;DHT22;10810;48.270;9.996;2023-07-02T04:35:07;16.60;99.90
21302;DHT22;10810;48.270;9.996;2023-07-02T04:42:29;16.60;99.90
21302;DHT22;10810;48.270;9.996;2023-07-02T04:45:03;16.60;99.90
21302;DHT22;10810;48.270;9.996;2023-07-02T04:47:32;16.70;99.90
21302;DHT22;10810;48.270;9.996;2023-07-02T04:54:54;16.50;99.90
21302;DHT22;10810;48.270;9.996;2023-07-02T04:57:21;16.60;99.90
21302;DHT22;10810;48.270;9.996;2023-07-02T04:59:48;16.50;99.90
21302;DHT22;10810;48.270;9.996;2023-07-02T05:04:44;16.50;99.90
21302;DHT22;10810;48.270;9.996;2023-07-02T05:09:38;16.40;99.90
21302;DHT22;10810;48.270;9.996;2023-07-02T05:12:06;16.40;99.90
21302;DHT22;10810;48.270;9.996;2023-07-02T05:14:33;16.30;99.90
21302;DHT22;10810;48.270;9.996;2023-07-02T05:21:56;16.80;99.90
21302;DHT22;10810;48.270;9.996;2023-07-02T05:39:11;16.30;99.90
21302;DHT22;10810;48.270;9.996;2023-07-02T05:49:06;15.50;99.90
21302;DHT22;10810;48.270;9.996;2023-07-02T05:56:33;15.40;99.90
21302;DHT22;10810;48.270;9.996;2023-07-02T06:13:47;15.40;99.90
21302;DHT22;10810;48.270;9.996;2023-07-02T06:23:41;15.70;99.90
21302;DHT22;10810;48.270;9.996;2023-07-02T06:28:39;16.50;99.90
21302;DHT22;10810;48.270;9.996;2023-07-02T06:31:10;15.80;99.90
21302;DHT22;10810;48.270;9.996;2023-07-02T06:33:39;15.90;99.90
21302;DHT22;10810;48.270;9.996;2023-07-02T06:48:28;16.10;99.90
21302;DHT22;10810;48.270;9.996;2023-07-02T06:50:55;16.10;99.90
21302;DHT22;10810;48.270;9.996;2023-07-02T06:58:21;16.50;99.90
21302;DHT22;10810;48.270;9.996;2023-07-02T07:05:45;17.20;99.90
21302;DHT22;10810;48.270;9.996;2023-07-02T07:10:40;17.20;99.90
21302;DHT22;10810;48.270;9.996;2023-07-02T07:18:02;17.70;99.90
21302;DHT22;10810;48.270;9.996;2023-07-02T07:20:29;18.00;99.90
21302;DHT22;10810;48.270;9.996;2023-07-02T07:22:58;18.00;99.90
21302;DHT22;10810;48.270;9.996;2023-07-02T07:25:25;18.30;99.90
21302;DHT22;10810;48.270;9.996;2023-07-02T07:30:19;18.30;99.90
21302;DHT22;10810;48.270;9.996;2023-07-02T07:32:49;18.30;99.90
21302;DHT22;10810;48.270;9.996;2023-07-02T07:40:13;18.40;99.90
21302;DHT22;10810;48.270;9.996;2023-07-02T07:42:41;18.70;99.90
21302;DHT22;10810;48.270;9.996;2023-07-02T07:45:10;18.80;99.90
21302;DHT22;10810;48.270;9.996;2023-07-02T07:50:06;18.50;99.90
21302;DHT22;10810;48.270;9.996;2023-07-02T07:52:37;18.40;99.90
21302;DHT22;10810;48.270;9.996;2023-07-02T07:55:05;18.40;99.90
21302;DHT22;10810;48.270;9.996;2023-07-02T07:57:34;18.50;99.90
21302;DHT22;10810;48.270;9.996;2023-07-02T08:00:04;18.50;99.90
21302;DHT22;10810;48.270;9.996;2023-07-02T08:05:02;18.40;99.90
21302;DHT22;10810;48.270;9.996;2023-07-02T08:07:31;18.20;99.90
21302;DHT22;10810;48.270;9.996;2023-07-02T08:14:56;18.50;99.90
21302;DHT22;10810;48.270;9.996;2023-07-02T08:19:50;19.00;99.90
21302;DHT22;10810;48.270;9.996;2023-07-02T08:22:17;19.00;99.90
21302;DHT22;10810;48.270;9.996;2023-07-02T08:24:44;19.10;99.90
21302;DHT22;10810;48.270;9.996;2023-07-02T08:27:11;19.10;99.90
21302;DHT22;10810;48.270;9.996;2023-07-02T08:32:10;19.00;99.90
21302;DHT22;10810;48.270;9.996;2023-07-02T08:34:37;18.90;99.90
21302;DHT22;10810;48.270;9.996;2023-07-02T08:37:04;18.80;99.90
21302;DHT22;10810;48.270;9.996;2023-07-02T08:41:58;18.60;99.90
21302;DHT22;10810;48.270;9.996;2023-07-02T08:44:26;18.50;99.90
21302;DHT22;10810;48.270;9.996;2023-07-02T08:46:53;18.50;99.90
21302;DHT22;10810;48.270;9.996;2023-07-02T08:49:23;18.30;99.90
21302;DHT22;10810;48.270;9.996;2023-07-02T08:54:18;18.30;99.90
21302;DHT22;10810;48.270;9.996;2023-07-02T08:56:46;18.40;99.90
21302;DHT22;10810;48.270;9.996;2023-07-02T09:01:47;18.30;99.90
21302;DHT22;10810;48.270;9.996;2023-07-02T09:04:18;18.30;99.90
21302;DHT22;10810;48.270;9.996;2023-07-02T09:06:47;18.30;99.90
21302;DHT22;10810;48.270;9.996;2023-07-02T09:09:15;18.40;99.90
21302;DHT22;10810;48.270;9.996;2023-07-02T09:11:48;18.50;99.90
21302;DHT22;10810;48.270;9.996;2023-07-02T09:14:26;18.60;99.90
21302;DHT22;10810;48.270;9.996;2023-07-02T09:17:04;18.70;99.90
21302;DHT22;10810;48.270;9.996;2023-07-02T09:19:31;19.10;99.90
21302;DHT22;10810;48.270;9.996;2023-07-02T09:22:00;19.30;99.90
21302;DHT22;10810;48.270;9.996;2023-07-02T09:24:28;19.50;99.90
21302;DHT22;10810;48.270;9.996;2023-07-02T09:26:57;19.70;99.90
21302;DHT22;10810;48.270;9.996;2023-07-02T09:29:25;20.00;99.90
21302;DHT22;10810;48.270;9.996;2023-07-02T09:31:54;20.30;99.90
21302;DHT22;10810;48.270;9.996;2023-07-02T09:34:27;20.40;99.90
21302;DHT22;10810;48.270;9.996;2023-07-02T09:36:54;20.50;99.90
21302;DHT22;10810;48.270;9.996;2023-07-02T09:39:27;20.60;99.90
21302;DHT22;10810;48.270;9.996;2023-07-02T09:41:57;20.60;99.90
21302;DHT22;10810;48.270;9.996;2023-07-02T09:44:28;20.80;99.90
21302;DHT22;10810;48.270;9.996;2023-07-02T09:47:01;21.00;99.90
21302;DHT22;10810;48.270;9.996;2023-07-02T09:49:32;21.30;99.90
21302;DHT22;10810;48.270;9.996;2023-07-02T09:52:01;21.50;99.90
21302;DHT22;10810;48.270;9.996;2023-07-02T09:54:30;21.60;99.90
21302;DHT22;10810;48.270;9.996;2023-07-02T09:56:58;21.70;99.90
21302;DHT22;10810;48.270;9.996;2023-07-02T09:59:26;21.90;99.90
21302;DHT22;10810;48.270;9.996;2023-07-02T10:01:53;22.00;99.90
21302;DHT22;10810;48.270;9.996;2023-07-02T10:04:20;22.20;99.90
21302;DHT22;10810;48.270;9.996;2023-07-02T10:06:50;22.30;99.90
21302;DHT22;10810;48.270;9.996;2023-07-02T10:09:18;22.70;99.90
21302;DHT22;10810;48.270;9.996;2023-07-02T10:11:46;23.10;99.90
21302;DHT22;10810;48.270;9.996;2023-07-02T10:14:13;23.40;99.90
21302;DHT22;10810;48.270;9.996;2023-07-02T10:16:50;23.30;99.90
21302;DHT22;10810;48.270;9.996;2023-07-02T10:19:17;23.20;99.90
21302;DHT22;10810;48.270;9.996;2023-07-02T10:21:45;22.90;99.90
21302;DHT22;10810;48.270;9.996;2023-07-02T10:24:15;22.90;99.90
21302;DHT22;10810;48.270;9.996;2023-07-02T10:26:55;23.10;99.90
21302;DHT22;10810;48.270;9.996;2023-07-02T10:29:23;23.30;99.90
21302;DHT22;10810;48.270;9.996;2023-07-02T10:31:50;23.30;99.90
21302;DHT22;10810;48.270;9.996;2023-07-02T10:39:40;23.30;99.90
21302;DHT22;10810;48.270;9.996;2023-07-02T10:42:09;23.50;99.90
21302;DHT22;10810;48.270;9.996;2023-07-02T10:44:47;23.70;99.50
21302;DHT22;10810;48.270;9.996;2023-07-02T10:47:14;23.70;98.40
21302;DHT22;10810;48.270;9.996;2023-07-02T10:49:41;23.20;93.20
21302;DHT22;10810;48.270;9.996;2023-07-02T10:52:08;23.30;93.50
21302;DHT22;10810;48.270;9.996;2023-07-02T10:54:40;23.50;96.10
21302;DHT22;10810;48.270;9.996;2023-07-02T10:57:13;23.90;94.70
21302;DHT22;10810;48.270;9.996;2023-07-02T10:59:40;23.90;93.30
21302;DHT22;10810;48.270;9.996;2023-07-02T11:02:08;23.90;93.50
21302;DHT22;10810;48.270;9.996;2023-07-02T11:04:36;23.90;92.40
21302;DHT22;10810;48.270;9.996;2023-07-02T11:07:03;23.80;91.30
21302;DHT22;10810;48.270;9.996;2023-07-02T11:09:31;23.70;91.60
21302;DHT22;10810;48.270;9.996;2023-07-02T11:11:59;23.70;92.30
21302;DHT22;10810;48.270;9.996;2023-07-02T11:14:29;23.70;92.20
21302;DHT22;10810;48.270;9.996;2023-07-02T11:16:56;23.90;93.40
21302;DHT22;10810;48.270;9.996;2023-07-02T11:19:23;23.90;91.10
21302;DHT22;10810;48.270;9.996;2023-07-02T11:21:51;23.80;87.90
21302;DHT22;10810;48.270;9.996;2023-07-02T11:24:27;23.80;91.10
21302;DHT22;10810;48.270;9.996;2023-07-02T11:26:54;23.80;91.10
21302;DHT22;10810;48.270;9.996;2023-07-02T11:29:22;23.90;92.90
21302;DHT22;10810;48.270;9.996;2023-07-02T11:31:50;24.20;91.40
21302;DHT22;10810;48.270;9.996;2023-07-02T11:34:19;24.50;91.00
21302;DHT22;10810;48.270;9.996;2023-07-02T11:36:47;24.50;88.60
21302;DHT22;10810;48.270;9.996;2023-07-02T11:39:15;24.00;82.50
21302;DHT22;10810;48.270;9.996;2023-07-02T11:41:44;23.80;86.60
21302;DHT22;10810;48.270;9.996;2023-07-02T11:44:11;24.00;84.60
21302;DHT22;10810;48.270;9.996;2023-07-02T11:46:38;23.90;88.70
21302;DHT22;10810;48.270;9.996;2023-07-02T11:49:07;24.10;85.80
21302;DHT22;10810;48.270;9.996;2023-07-02T11:51:35;23.80;80.80
21302;DHT22;10810;48.270;9.996;2023-07-02T11:54:02;23.20;81.40
21302;DHT22;10810;48.270;9.996;2023-07-02T11:56:32;23.00;81.40
21302;DHT22;10810;48.270;9.996;2023-07-02T11:58:59;23.00;89.90
21302;DHT22;10810;48.270;9.996;2023-07-02T12:01:33;23.70;91.90
21302;DHT22;10810;48.270;9.996;2023-07-02T12:04:14;24.10;90.10
21302;DHT22;10810;48.270;9.996;2023-07-02T12:06:42;24.20;90.80
21302;DHT22;10810;48.270;9.996;2023-07-02T12:09:11;24.50;90.50
21302;DHT22;10810;48.270;9.996;2023-07-02T12:11:38;24.90;91.80
21302;DHT22;10810;48.270;9.996;2023-07-02T12:14:36;25.30;90.70
21302;DHT22;10810;48.270;9.996;2023-07-02T12:17:13;25.20;92.30
21302;DHT22;10810;48.270;9.996;2023-07-02T12:19:43;25.00;87.60
21302;DHT22;10810;48.270;9.996;2023-07-02T12:24:49;24.40;90.90
21302;DHT22;10810;48.270;9.996;2023-07-02T12:27:26;24.40;93.00
21302;DHT22;10810;48.270;9.996;2023-07-02T12:29:55;25.30;91.10
21302;DHT22;10810;48.270;9.996;2023-07-02T12:32:22;25.00;91.60
21302;DHT22;10810;48.270;9.996;2023-07-02T12:35:03;25.10;89.90
21302;DHT22;10810;48.270;9.996;2023-07-02T12:37:32;25.10;90.20
21302;DHT22;10810;48.270;9.996;2023-07-02T12:39:59;24.80;89.50
21302;DHT22;10810;48.270;9.996;2023-07-02T12:42:26;25.00;88.70
21302;DHT22;10810;48.270;9.996;2023-07-02T12:44:53;25.00;90.20
21302;DHT22;10810;48.270;9.996;2023-07-02T12:47:36;25.00;87.00
21302;DHT22;10810;48.270;9.996;2023-07-02T12:50:10;24.50;89.00
21302;DHT22;10810;48.270;9.996;2023-07-02T12:52:37;24.50;89.30
21302;DHT22;10810;48.270;9.996;2023-07-02T12:55:06;24.20;92.20
21302;DHT22;10810;48.270;9.996;2023-07-02T12:57:33;24.10;92.50
21302;DHT22;10810;48.270;9.996;2023-07-02T13:00:00;24.60;93.50
21302;DHT22;10810;48.270;9.996;2023-07-02T13:02:27;24.90;92.10
21302;DHT22;10810;48.270;9.996;2023-07-02T13:04:54;24.90;89.70
21302;DHT22;10810;48.270;9.996;2023-07-02T13:07:23;24.90;90.40
21302;DHT22;10810;48.270;9.996;2023-07-02T13:09:51;25.00;90.40
21302;DHT22;10810;48.270;9.996;2023-07-02T13:12:19;24.80;90.20
21302;DHT22;10810;48.270;9.996;2023-07-02T13:14:46;24.90;86.90
21302;DHT22;10810;48.270;9.996;2023-07-02T13:17:19;24.90;91.00
21302;DHT22;10810;48.270;9.996;2023-07-02T13:19:46;24.80;89.30
21302;DHT22;10810;48.270;9.996;2023-07-02T13:22:14;24.90;88.60
21302;DHT22;10810;48.270;9.996;2023-07-02T13:24:42;25.00;89.30
21302;DHT22;10810;48.270;9.996;2023-07-02T13:27:13;25.20;85.80
21302;DHT22;10810;48.270;9.996;2023-07-02T13:29:41;25.00;90.60
21302;DHT22;10810;48.270;9.996;2023-07-02T13:32:08;25.20;90.60
21302;DHT22;10810;48.270;9.996;2023-07-02T13:34:37;25.20;89.10
21302;DHT22;10810;48.270;9.996;2023-07-02T13:37:04;25.30;85.70
21302;DHT22;10810;48.270;9.996;2023-07-02T13:39:31;25.50;85.70
21302;DHT22;10810;48.270;9.996;2023-07-02T13:41:59;25.80;89.60
21302;DHT22;10810;48.270;9.996;2023-07-02T13:44:26;25.90;89.10
21302;DHT22;10810;48.270;9.996;2023-07-02T13:46:53;25.90;90.00
21302;DHT22;10810;48.270;9.996;2023-07-02T13:49:20;25.70;88.30
21302;DHT22;10810;48.270;9.996;2023-07-02T13:51:48;25.30;87.70
21302;DHT22;10810;48.270;9.996;2023-07-02T13:54:16;25.40;87.00
21302;DHT22;10810;48.270;9.996;2023-07-02T13:56:44;24.90;89.10
21302;DHT22;10810;48.270;9.996;2023-07-02T13:59:13;24.90;90.30
21302;DHT22;10810;48.270;9.996;2023-07-02T14:01:41;25.00;90.50
21302;DHT22;10810;48.270;9.996;2023-07-02T14:04:08;25.50;90.30
21302;DHT22;10810;48.270;9.996;2023-07-02T14:06:35;25.60;87.00
21302;DHT22;10810;48.270;9.996;2023-07-02T14:09:02;25.70;85.10
21302;DHT22;10810;48.270;9.996;2023-07-02T14:11:30;25.80;84.30
21302;DHT22;10810;48.270;9.996;2023-07-02T14:13:57;25.60;82.90
21302;DHT22;10810;48.270;9.996;2023-07-02T14:16:25;25.50;82.00
21302;DHT22;10810;48.270;9.996;2023-07-02T14:18:52;25.40;87.50
21302;DHT22;10810;48.270;9.996;2023-07-02T14:21:20;25.40;84.60
21302;DHT22;10810;48.270;9.996;2023-07-02T14:23:46;25.20;83.70
21302;DHT22;10810;48.270;9.996;2023-07-02T14:26:13;25.40;85.40
21302;DHT22;10810;48.270;9.996;2023-07-02T14:28:40;25.80;88.30
21302;DHT22;10810;48.270;9.996;2023-07-02T14:31:07;26.20;84.50
21302;DHT22;10810;48.270;9.996;2023-07-02T14:33:37;26.40;81.30
21302;DHT22;10810;48.270;9.996;2023-07-02T14:36:05;26.70;79.30
21302;DHT22;10810;48.270;9.996;2023-07-02T14:38:33;27.00;78.50
21302;DHT22;10810;48.270;9.996;2023-07-02T14:41:01;27.40;77.50
21302;DHT22;10810;48.270;9.996;2023-07-02T14:43:29;27.40;73.90
21302;DHT22;10810;48.270;9.996;2023-07-02T14:45:58;27.40;70.90
21302;DHT22;10810;48.270;9.996;2023-07-02T14:48:25;27.70;74.10
21302;DHT22;10810;48.270;9.996;2023-07-02T14:50:56;27.90;69.70
21302;DHT22;10810;48.270;9.996;2023-07-02T14:53:24;27.90;67.20
21302;DHT22;10810;48.270;9.996;2023-07-02T14:55:54;27.90;67.90
21302;DHT22;10810;48.270;9.996;2023-07-02T15:00:49;27.60;72.50
21302;DHT22;10810;48.270;9.996;2023-07-02T15:03:18;27.60;66.00
21302;DHT22;10810;48.270;9.996;2023-07-02T15:05:46;27.60;64.10
21302;DHT22;10810;48.270;9.996;2023-07-02T15:08:15;27.70;67.50
21302;DHT22;10810;48.270;9.996;2023-07-02T15:10:46;27.90;65.70
21302;DHT22;10810;48.270;9.996;2023-07-02T15:13:13;27.40;63.40
21302;DHT22;10810;48.270;9.996;2023-07-02T15:15:43;27.20;62.20
21302;DHT22;10810;48.270;9.996;2023-07-02T15:18:10;27.00;60.00
21302;DHT22;10810;48.270;9.996;2023-07-02T15:20:37;26.50;62.90
21302;DHT22;10810;48.270;9.996;2023-07-02T15:23:04;26.30;66.10
21302;DHT22;10810;48.270;9.996;2023-07-02T15:25:33;25.90;63.90
21302;DHT22;10810;48.270;9.996;2023-07-02T15:28:00;25.80;65.60
21302;DHT22;10810;48.270;9.996;2023-07-02T15:30:27;25.80;67.60
21302;DHT22;10810;48.270;9.996;2023-07-02T15:32:57;25.80;66.50
21302;DHT22;10810;48.270;9.996;2023-07-02T15:35:27;26.00;70.20
21302;DHT22;10810;48.270;9.996;2023-07-02T15:37:59;26.00;68.10
21302;DHT22;10810;48.270;9.996;2023-07-02T15:43:55;25.80;65.40
21302;DHT22;10810;48.270;9.996;2023-07-02T15:46:29;25.60;64.80
21302;DHT22;10810;48.270;9.996;2023-07-02T15:48:58;25.40;65.00
21302;DHT22;10810;48.270;9.996;2023-07-02T15:51:33;25.50;66.90
21302;DHT22;10810;48.270;9.996;2023-07-02T15:54:12;26.10;71.50
21302;DHT22;10810;48.270;9.996;2023-07-02T15:56:39;26.00;65.60
21302;DHT22;10810;48.270;9.996;2023-07-02T15:59:12;25.80;62.30
21302;DHT22;10810;48.270;9.996;2023-07-02T16:01:50;25.80;66.90
21302;DHT22;10810;48.270;9.996;2023-07-02T16:04:28;25.40;70.60
21302;DHT22;10810;48.270;9.996;2023-07-02T16:07:02;24.90;66.60
21302;DHT22;10810;48.270;9.996;2023-07-02T16:09:32;24.80;73.10
21302;DHT22;10810;48.270;9.996;2023-07-02T16:12:09;24.80;74.30
21302;DHT22;10810;48.270;9.996;2023-07-02T16:14:45;24.90;65.60
21302;DHT22;10810;48.270;9.996;2023-07-02T16:17:26;24.90;64.00
21302;DHT22;10810;48.270;9.996;2023-07-02T16:19:55;24.60;67.80
21302;DHT22;10810;48.270;9.996;2023-07-02T16:22:22;25.20;68.00
21302;DHT22;10810;48.270;9.996;2023-07-02T16:27:19;25.70;65.30
21302;DHT22;10810;48.270;9.996;2023-07-02T16:29:47;25.60;64.20
21302;DHT22;10810;48.270;9.996;2023-07-02T16:32:20;25.80;67.30
21302;DHT22;10810;48.270;9.996;2023-07-02T16:34:50;26.00;66.10
21302;DHT22;10810;48.270;9.996;2023-07-02T16:37:17;26.30;65.50
21302;DHT22;10810;48.270;9.996;2023-07-02T16:39:44;25.70;62.60
21302;DHT22;10810;48.270;9.996;2023-07-02T16:42:11;26.40;62.80
21302;DHT22;10810;48.270;9.996;2023-07-02T16:44:38;26.10;60.20
21302;DHT22;10810;48.270;9.996;2023-07-02T16:47:07;26.10;62.50
21302;DHT22;10810;48.270;9.996;2023-07-02T16:49:34;26.20;61.00
21302;DHT22;10810;48.270;9.996;2023-07-02T16:52:01;26.20;61.50
21302;DHT22;10810;48.270;9.996;2023-07-02T16:54:28;25.80;60.70
21302;DHT22;10810;48.270;9.996;2023-07-02T16:56:57;25.70;60.40
21302;DHT22;10810;48.270;9.996;2023-07-02T16:59:26;25.80;60.20
21302;DHT22;10810;48.270;9.996;2023-07-02T17:01:56;25.80;60.80
21302;DHT22;10810;48.270;9.996;2023-07-02T17:04:26;26.00;60.70
21302;DHT22;10810;48.270;9.996;2023-07-02T17:06:54;25.90;60.70
21302;DHT22;10810;48.270;9.996;2023-07-02T17:09:24;25.80;60.40
21302;DHT22;10810;48.270;9.996;2023-07-02T17:11:56;25.70;61.20
21302;DHT22;10810;48.270;9.996;2023-07-02T17:14:24;25.60;59.80
21302;DHT22;10810;48.270;9.996;2023-07-02T17:16:55;25.40;60.90
21302;DHT22;10810;48.270;9.996;2023-07-02T17:19:26;25.30;59.10
21302;DHT22;10810;48.270;9.996;2023-07-02T17:21:55;25.10;60.20
21302;DHT22;10810;48.270;9.996;2023-07-02T17:24:24;25.10;59.30
21302;DHT22;10810;48.270;9.996;2023-07-02T17:26:54;25.10;60.20
21302;DHT22;10810;48.270;9.996;2023-07-02T17:29:21;25.00;60.10
21302;DHT22;10810;48.270;9.996;2023-07-02T17:32:02;24.70;59.50
21302;DHT22;10810;48.270;9.996;2023-07-02T17:34:42;24.80;60.00
21302;DHT22;10810;48.270;9.996;2023-07-02T17:37:24;24.80;61.30
21302;DHT22;10810;48.270;9.996;2023-07-02T17:39:51;24.80;62.20
21302;DHT22;10810;48.270;9.996;2023-07-02T17:44:46;24.60;60.90
21302;DHT22;10810;48.270;9.996;2023-07-02T17:47:17;24.40;62.90
21302;DHT22;10810;48.270;9.996;2023-07-02T17:50:03;24.50;61.70
21302;DHT22;10810;48.270;9.996;2023-07-02T17:52:30;24.50;62.50
21302;DHT22;10810;48.270;9.996;2023-07-02T17:54:57;24.30;61.70
21302;DHT22;10810;48.270;9.996;2023-07-02T17:57:26;24.10;63.20
21302;DHT22;10810;48.270;9.996;2023-07-02T17:59:54;23.70;62.50
21302;DHT22;10810;48.270;9.996;2023-07-02T18:02:22;23.90;63.00
21302;DHT22;10810;48.270;9.996;2023-07-02T18:04:49;23.80;63.10
21302;DHT22;10810;48.270;9.996;2023-07-02T18:07:19;23.90;63.60
21302;DHT22;10810;48.270;9.996;2023-07-02T18:09:56;23.80;64.20
21302;DHT22;10810;48.270;9.996;2023-07-02T18:12:34;23.80;70.00
21302;DHT22;10810;48.270;9.996;2023-07-02T18:15:14;23.70;68.10
21302;DHT22;10810;48.270;9.996;2023-07-02T18:17:56;23.70;68.60
21302;DHT22;10810;48.270;9.996;2023-07-02T18:23:19;23.80;64.20
21302;DHT22;10810;48.270;9.996;2023-07-02T18:26:02;23.50;65.30
21302;DHT22;10810;48.270;9.996;2023-07-02T18:28:44;23.30;67.20
21302;DHT22;10810;48.270;9.996;2023-07-02T18:31:54;23.20;65.70
21302;DHT22;10810;48.270;9.996;2023-07-02T18:34:48;23.20;72.00
21302;DHT22;10810;48.270;9.996;2023-07-02T18:37:50;22.90;68.10
21302;DHT22;10810;48.270;9.996;2023-07-02T18:41:00;22.70;66.30
21302;DHT22;10810;48.270;9.996;2023-07-02T18:44:07;22.60;67.10
21302;DHT22;10810;48.270;9.996;2023-07-02T18:46:38;22.70;74.40
21302;DHT22;10810;48.270;9.996;2023-07-02T18:49:06;22.60;69.80
21302;DHT22;10810;48.270;9.996;2023-07-02T18:51:35;22.40;69.70
21302;DHT22;10810;48.270;9.996;2023-07-02T18:54:08;22.20;74.10
21302;DHT22;10810;48.270;9.996;2023-07-02T18:56:51;22.00;72.50
21302;DHT22;10810;48.270;9.996;2023-07-02T18:59:47;21.50;71.40
21302;DHT22;10810;48.270;9.996;2023-07-02T19:02:20;21.90;77.10
21302;DHT22;10810;48.270;9.996;2023-07-02T19:04:48;21.70;79.30
21302;DHT22;10810;48.270;9.996;2023-07-02T19:07:48;21.50;78.10
21302;DHT22;10810;48.270;9.996;2023-07-02T19:10:21;21.50;80.30
21302;DHT22;10810;48.270;9.996;2023-07-02T19:12:59;21.30;74.10
21302;DHT22;10810;48.270;9.996;2023-07-02T19:15:40;21.70;77.50
21302;DHT22;10810;48.270;9.996;2023-07-02T19:18:24;21.40;80.40
21302;DHT22;10810;48.270;9.996;2023-07-02T19:21:03;21.60;80.80
21302;DHT22;10810;48.270;9.996;2023-07-02T19:23:50;20.90;75.10
21302;DHT22;10810;48.270;9.996;2023-07-02T19:26:31;20.90;78.30
21302;DHT22;10810;48.270;9.996;2023-07-02T19:29:00;20.80;75.80
21302;DHT22;10810;48.270;9.996;2023-07-02T19:34:24;20.70;80.60
21302;DHT22;10810;48.270;9.996;2023-07-02T19:37:11;20.50;76.70
21302;DHT22;10810;48.270;9.996;2023-07-02T19:42:48;20.30;75.70
21302;DHT22;10810;48.270;9.996;2023-07-02T19:45:08;20.20;76.60
21302;DHT22;10810;48.270;9.996;2023-07-02T19:47:37;19.90;77.00
21302;DHT22;10810;48.270;9.996;2023-07-02T19:50:05;19.80;82.00
21302;DHT22;10810;48.270;9.996;2023-07-02T19:52:33;19.80;80.20
21302;DHT22;10810;48.270;9.996;2023-07-02T19:55:01;19.80;81.20
21302;DHT22;10810;48.270;9.996;2023-07-02T19:57:30;19.70;81.00
21302;DHT22;10810;48.270;9.996;2023-07-02T20:00:18;19.70;82.30
21302;DHT22;10810;48.270;9.996;2023-07-02T20:02:47;19.70;81.60
21302;DHT22;10810;48.270;9.996;2023-07-02T20:05:29;19.60;82.20
21302;DHT22;10810;48.270;9.996;2023-07-02T20:10:52;19.50;82.00
21302;DHT22;10810;48.270;9.996;2023-07-02T20:15:59;18.90;80.90
21302;DHT22;10810;48.270;9.996;2023-07-02T20:21:01;19.40;83.50
21302;DHT22;10810;48.270;9.996;2023-07-02T20:25:58;19.20;84.90
21302;DHT22;10810;48.270;9.996;2023-07-02T20:28:25;19.20;90.70
21302;DHT22;10810;48.270;9.996;2023-07-02T20:30:54;19.10;88.20
21302;DHT22;10810;48.270;9.996;2023-07-02T20:33:22;19.00;89.40
21302;DHT22;10810;48.270;9.996;2023-07-02T20:38:17;19.00;89.80